PWSweather.com
Personal Weather Stations
Station Observations
NORTHPOLE1
Tombur Subdivision, North Pole, AK 99705

Tombur SubdivisionNorth Pole, AK 99705

Lat: 64.774039, Lon: -147.284862

Elevation: 434

Station Type: Davis Vantage Pro 2

http://kl7ac.com

Latest ConditionsUpdated 5:05:00 PM AKST Tuesday, Sep 2, 2014
Currently Today's Max Today's Min Today's Average
Temperature 47.3°F8.5°C 48.9°F9.4°C 39.5°F4.2°C 44.5°F6.9°C
Dew Point 35.3°F1.8°C 46.4°F8.0°C 34.8°F1.6°C 41.2°F5.1°C
Winds 4.0 mph WSW6.4 kmh WSW 9.0 mph WSW14.5 kmh WSW - 6.4 mph 10.3 kmh
Wind Gusts 15.0 mph24.1 kmh 28.0 mph45.1 kmh - -
Humidity 63% 100% 59% 89%
Pressure 29.84 in1010.5 mb 29.85 in1010.8 mb 29.54 in1000.3 mb -
Precipitation - 0.85 in21.6 mm - -
Hour Temp Dew Point Humidity Winds Wind Gusts Pressure Precip Precip Rate Daily Precip Total
05:05 PM 47.3°F8.5°C 35.3°F1.8°C 63% 4.0 mph WSW6.4 kmh WSW 15.0 mph24.1 kmh 29.84 in1010.5 mb 0.00 in0.0 mm 0.00 in/hr0.0 mm/hr 0.85 in21.6 mm
05:00 PM 47.6°F8.7°C 35.2°F1.8°C 62% 4.0 mph WSW6.4 kmh WSW 15.0 mph24.1 kmh 29.85 in1010.8 mb 0.00 in0.0 mm 0.00 in/hr0.0 mm/hr 0.85 in21.6 mm
04:55 PM 47.9°F8.8°C 35.5°F1.9°C 62% 4.0 mph WSW6.4 kmh WSW 12.0 mph19.3 kmh 29.85 in1010.8 mb 0.00 in0.0 mm 0.00 in/hr0.0 mm/hr 0.85 in21.6 mm
04:50 PM 48.2°F9.0°C 36.2°F2.3°C 63% 4.0 mph WSW6.4 kmh WSW 13.0 mph20.9 kmh 29.84 in1010.5 mb 0.00 in0.0 mm 0.00 in/hr0.0 mm/hr 0.85 in21.6 mm
04:45 PM 48.5°F9.2°C 34.8°F1.6°C 59% 5.0 mph SW8.0 kmh SW 14.0 mph22.5 kmh 29.84 in1010.5 mb 0.00 in0.0 mm 0.00 in/hr0.0 mm/hr 0.85 in21.6 mm
04:40 PM 48.7°F9.3°C 35.4°F1.9°C 60% 7.0 mph WSW11.3 kmh WSW 14.0 mph22.5 kmh 29.84 in1010.5 mb 0.00 in0.0 mm 0.00 in/hr0.0 mm/hr 0.85 in21.6 mm
04:35 PM 48.8°F9.3°C 36.4°F2.4°C 62% 7.0 mph WSW11.3 kmh WSW 15.0 mph24.1 kmh 29.84 in1010.5 mb 0.00 in0.0 mm 0.00 in/hr0.0 mm/hr 0.85 in21.6 mm
04:30 PM 48.9°F9.4°C 35.6°F2.0°C 60% 7.0 mph WSW11.3 kmh WSW 20.0 mph32.2 kmh 29.84 in1010.5 mb 0.00 in0.0 mm 0.00 in/hr0.0 mm/hr 0.85 in21.6 mm
04:25 PM 48.8°F9.3°C 35.9°F2.2°C 61% 7.0 mph WSW11.3 kmh WSW 20.0 mph32.2 kmh 29.84 in1010.5 mb 0.00 in0.0 mm 0.00 in/hr0.0 mm/hr 0.85 in21.6 mm
04:20 PM 48.5°F9.2°C 35.7°F2.1°C 61% 7.0 mph SW11.3 kmh SW 15.0 mph24.1 kmh 29.84 in1010.5 mb 0.00 in0.0 mm 0.00 in/hr0.0 mm/hr 0.85 in21.6 mm
04:15 PM 48.1°F8.9°C 36.9°F2.7°C 65% 6.0 mph WSW9.7 kmh WSW 17.0 mph27.4 kmh 29.84 in1010.5 mb 0.00 in0.0 mm 0.00 in/hr0.0 mm/hr 0.85 in21.6 mm
04:10 PM 47.9°F8.8°C 36.3°F2.4°C 64% 5.0 mph WSW8.0 kmh WSW 17.0 mph27.4 kmh 29.84 in1010.5 mb 0.00 in0.0 mm 0.00 in/hr0.0 mm/hr 0.85 in21.6 mm
04:05 PM 47.7°F8.7°C 36.1°F2.3°C 64% 5.0 mph WSW8.0 kmh WSW 15.0 mph24.1 kmh 29.84 in1010.5 mb 0.00 in0.0 mm 0.00 in/hr0.0 mm/hr 0.85 in21.6 mm
04:00 PM 47.8°F8.8°C 36.2°F2.3°C 64% 7.0 mph WSW11.3 kmh WSW 17.0 mph27.4 kmh 29.84 in1010.5 mb 0.00 in0.0 mm 0.00 in/hr0.0 mm/hr 0.85 in21.6 mm
03:55 PM 47.9°F8.8°C 35.9°F2.2°C 63% 7.0 mph WSW11.3 kmh WSW 17.0 mph27.4 kmh 29.84 in1010.5 mb 0.00 in0.0 mm 0.00 in/hr0.0 mm/hr 0.85 in21.6 mm
03:50 PM 47.8°F8.8°C 36.6°F2.6°C 65% 5.0 mph WSW8.0 kmh WSW 13.0 mph20.9 kmh 29.84 in1010.5 mb 0.00 in0.0 mm 0.00 in/hr0.0 mm/hr 0.85 in21.6 mm
03:45 PM 47.8°F8.8°C 36.6°F2.6°C 65% 4.0 mph WSW6.4 kmh WSW 13.0 mph20.9 kmh 29.84 in1010.5 mb 0.00 in0.0 mm 0.00 in/hr0.0 mm/hr 0.85 in21.6 mm
03:40 PM 47.9°F8.8°C 37.1°F2.8°C 66% 5.0 mph W8.0 kmh W 15.0 mph24.1 kmh 29.84 in1010.5 mb 0.00 in0.0 mm 0.00 in/hr0.0 mm/hr 0.85 in21.6 mm
03:35 PM 48.1°F8.9°C 38.4°F3.6°C 69% 5.0 mph W8.0 kmh W 15.0 mph24.1 kmh 29.84 in1010.5 mb 0.00 in0.0 mm 0.00 in/hr0.0 mm/hr 0.85 in21.6 mm
03:30 PM 48.2°F9.0°C 38.1°F3.4°C 68% 4.0 mph W6.4 kmh W 15.0 mph24.1 kmh 29.84 in1010.5 mb 0.00 in0.0 mm 0.00 in/hr0.0 mm/hr 0.85 in21.6 mm
03:25 PM 48.3°F9.1°C 38.2°F3.4°C 68% 4.0 mph W6.4 kmh W 15.0 mph24.1 kmh 29.84 in1010.5 mb 0.00 in0.0 mm 0.00 in/hr0.0 mm/hr 0.85 in21.6 mm
03:20 PM 48.4°F9.1°C 36.8°F2.7°C 64% 4.0 mph WSW6.4 kmh WSW 14.0 mph22.5 kmh 29.84 in1010.5 mb 0.00 in0.0 mm 0.00 in/hr0.0 mm/hr 0.85 in21.6 mm
03:15 PM 48.3°F9.1°C 37.1°F2.8°C 65% 4.0 mph WSW6.4 kmh WSW 16.0 mph25.7 kmh 29.84 in1010.5 mb 0.00 in0.0 mm 0.00 in/hr0.0 mm/hr 0.85 in21.6 mm
03:10 PM 48.2°F9.0°C 37.4°F3.0°C 66% 5.0 mph WSW8.0 kmh WSW 16.0 mph25.7 kmh 29.84 in1010.5 mb 0.00 in0.0 mm 0.00 in/hr0.0 mm/hr 0.85 in21.6 mm
03:05 PM 48.2°F9.0°C 36.6°F2.6°C 64% 6.0 mph WSW9.7 kmh WSW 16.0 mph25.7 kmh 29.84 in1010.5 mb 0.00 in0.0 mm 0.00 in/hr0.0 mm/hr 0.85 in21.6 mm
03:00 PM 48.2°F9.0°C 35.4°F1.9°C 61% 7.0 mph WSW11.3 kmh WSW 16.0 mph25.7 kmh 29.84 in1010.5 mb 0.00 in0.0 mm 0.00 in/hr0.0 mm/hr 0.85 in21.6 mm
02:55 PM 48.1°F8.9°C 36.5°F2.5°C 64% 7.0 mph SW11.3 kmh SW 19.0 mph30.6 kmh 29.84 in1010.5 mb 0.00 in0.0 mm 0.00 in/hr0.0 mm/hr 0.85 in21.6 mm
02:50 PM 48.2°F9.0°C 35.8°F2.1°C 62% 7.0 mph WSW11.3 kmh WSW 19.0 mph30.6 kmh 29.84 in1010.5 mb 0.00 in0.0 mm 0.00 in/hr0.0 mm/hr 0.85 in21.6 mm
02:45 PM 48.3°F9.1°C 38.2°F3.4°C 68% 6.0 mph WSW9.7 kmh WSW 14.0 mph22.5 kmh 29.84 in1010.5 mb 0.00 in0.0 mm 0.00 in/hr0.0 mm/hr 0.85 in21.6 mm
02:40 PM 48.2°F9.0°C 37.0°F2.8°C 65% 7.0 mph SW11.3 kmh SW 16.0 mph25.7 kmh 29.84 in1010.5 mb 0.00 in0.0 mm 0.00 in/hr0.0 mm/hr 0.85 in21.6 mm
02:35 PM 48.1°F8.9°C 37.3°F2.9°C 66% 8.0 mph SW12.9 kmh SW 16.0 mph25.7 kmh 29.84 in1010.5 mb 0.00 in0.0 mm 0.00 in/hr0.0 mm/hr 0.85 in21.6 mm
02:30 PM 48.0°F8.9°C 37.2°F2.9°C 66% 8.0 mph WSW12.9 kmh WSW 17.0 mph27.4 kmh 29.85 in1010.8 mb 0.00 in0.0 mm 0.00 in/hr0.0 mm/hr 0.85 in21.6 mm
02:25 PM 47.9°F8.8°C 38.2°F3.4°C 69% 6.0 mph WSW9.7 kmh WSW 17.0 mph27.4 kmh 29.84 in1010.5 mb 0.00 in0.0 mm 0.00 in/hr0.0 mm/hr 0.85 in21.6 mm
02:20 PM 47.8°F8.8°C 38.8°F3.8°C 71% 5.0 mph WSW8.0 kmh WSW 13.0 mph20.9 kmh 29.85 in1010.8 mb 0.00 in0.0 mm 0.00 in/hr0.0 mm/hr 0.85 in21.6 mm
02:15 PM 47.4°F8.6°C 37.7°F3.2°C 69% 6.0 mph WSW9.7 kmh WSW 13.0 mph20.9 kmh 29.85 in1010.8 mb 0.00 in0.0 mm 0.00 in/hr0.0 mm/hr 0.85 in21.6 mm
02:10 PM 47.0°F8.3°C 38.1°F3.4°C 71% 6.0 mph WSW9.7 kmh WSW 14.0 mph22.5 kmh 29.85 in1010.8 mb 0.00 in0.0 mm 0.00 in/hr0.0 mm/hr 0.85 in21.6 mm
02:05 PM 46.6°F8.1°C 38.1°F3.4°C 72% 6.0 mph WSW9.7 kmh WSW 15.0 mph24.1 kmh 29.85 in1010.8 mb 0.00 in0.0 mm 0.00 in/hr0.0 mm/hr 0.85 in21.6 mm
02:00 PM 46.3°F7.9°C 37.0°F2.8°C 70% 5.0 mph WSW8.0 kmh WSW 15.0 mph24.1 kmh 29.85 in1010.8 mb 0.00 in0.0 mm 0.00 in/hr0.0 mm/hr 0.85 in21.6 mm
01:55 PM 46.2°F7.9°C 38.4°F3.6°C 74% 4.0 mph W6.4 kmh W 13.0 mph20.9 kmh 29.85 in1010.8 mb 0.00 in0.0 mm 0.00 in/hr0.0 mm/hr 0.85 in21.6 mm
01:50 PM 46.3°F7.9°C 37.8°F3.2°C 72% 6.0 mph W9.7 kmh W 17.0 mph27.4 kmh 29.84 in1010.5 mb 0.00 in0.0 mm 0.00 in/hr0.0 mm/hr 0.85 in21.6 mm
01:45 PM 46.4°F8.0°C 38.2°F3.4°C 73% 6.0 mph WSW9.7 kmh WSW 17.0 mph27.4 kmh 29.85 in1010.8 mb 0.00 in0.0 mm 0.00 in/hr0.0 mm/hr 0.85 in21.6 mm
01:40 PM 46.3°F7.9°C 38.5°F3.6°C 74% 5.0 mph WSW8.0 kmh WSW 15.0 mph24.1 kmh 29.84 in1010.5 mb 0.00 in0.0 mm 0.00 in/hr0.0 mm/hr 0.85 in21.6 mm
01:35 PM 46.0°F7.8°C 38.2°F3.4°C 74% 7.0 mph WSW11.3 kmh WSW 18.0 mph29.0 kmh 29.84 in1010.5 mb 0.00 in0.0 mm 0.00 in/hr0.0 mm/hr 0.85 in21.6 mm
01:30 PM 45.8°F7.7°C 37.6°F3.1°C 73% 7.0 mph WSW11.3 kmh WSW 19.0 mph30.6 kmh 29.84 in1010.5 mb 0.00 in0.0 mm 0.00 in/hr0.0 mm/hr 0.85 in21.6 mm
01:25 PM 45.5°F7.5°C 38.7°F3.7°C 77% 7.0 mph WSW11.3 kmh WSW 19.0 mph30.6 kmh 29.84 in1010.5 mb 0.00 in0.0 mm 0.00 in/hr0.0 mm/hr 0.85 in21.6 mm
01:20 PM 45.2°F7.3°C 37.7°F3.2°C 75% 8.0 mph WSW12.9 kmh WSW 18.0 mph29.0 kmh 29.84 in1010.5 mb 0.00 in0.0 mm 0.00 in/hr0.0 mm/hr 0.85 in21.6 mm
01:15 PM 44.9°F7.2°C 38.8°F3.8°C 79% 7.0 mph W11.3 kmh W 18.0 mph29.0 kmh 29.84 in1010.5 mb 0.00 in0.0 mm 0.00 in/hr0.0 mm/hr 0.85 in21.6 mm
01:10 PM 44.6°F7.0°C 39.1°F3.9°C 81% 6.0 mph W9.7 kmh W 17.0 mph27.4 kmh 29.84 in1010.5 mb 0.00 in0.0 mm 0.00 in/hr0.0 mm/hr 0.85 in21.6 mm
01:05 PM 44.1°F6.7°C 39.3°F4.1°C 83% 7.0 mph WSW11.3 kmh WSW 19.0 mph30.6 kmh 29.84 in1010.5 mb 0.00 in0.0 mm 0.00 in/hr0.0 mm/hr 0.85 in21.6 mm
01:00 PM 43.6°F6.4°C 38.2°F3.4°C 81% 7.0 mph WSW11.3 kmh WSW 19.0 mph30.6 kmh 29.85 in1010.8 mb 0.00 in0.0 mm 0.00 in/hr0.0 mm/hr 0.85 in21.6 mm
12:55 PM 43.6°F6.4°C 38.8°F3.8°C 83% 7.0 mph W11.3 kmh W 15.0 mph24.1 kmh 29.84 in1010.5 mb 0.00 in0.0 mm 0.00 in/hr0.0 mm/hr 0.85 in21.6 mm
12:50 PM 43.9°F6.6°C 39.4°F4.1°C 84% 6.0 mph W9.7 kmh W 17.0 mph27.4 kmh 29.84 in1010.5 mb 0.00 in0.0 mm 0.00 in/hr0.0 mm/hr 0.85 in21.6 mm
12:45 PM 44.4°F6.9°C 39.2°F4.0°C 82% 6.0 mph W9.7 kmh W 18.0 mph29.0 kmh 29.84 in1010.5 mb 0.00 in0.0 mm 0.00 in/hr0.0 mm/hr 0.85 in21.6 mm
12:40 PM 44.8°F7.1°C 39.6°F4.2°C 82% 6.0 mph W9.7 kmh W 18.0 mph29.0 kmh 29.84 in1010.5 mb 0.00 in0.0 mm 0.00 in/hr0.0 mm/hr 0.85 in21.6 mm
12:35 PM 45.0°F7.2°C 40.5°F4.7°C 84% 6.0 mph W9.7 kmh W 17.0 mph27.4 kmh 29.84 in1010.5 mb 0.00 in0.0 mm 0.00 in/hr0.0 mm/hr 0.85 in21.6 mm
12:30 PM 45.3°F7.4°C 41.4°F5.2°C 86% 7.0 mph W11.3 kmh W 17.0 mph27.4 kmh 29.84 in1010.5 mb 0.00 in0.0 mm 0.00 in/hr0.0 mm/hr 0.85 in21.6 mm
12:25 PM 45.2°F7.3°C 41.6°F5.3°C 87% 6.0 mph W9.7 kmh W 16.0 mph25.7 kmh 29.84 in1010.5 mb 0.00 in0.0 mm 0.00 in/hr0.0 mm/hr 0.85 in21.6 mm
12:20 PM 45.1°F7.3°C 42.1°F5.6°C 89% 5.0 mph W8.0 kmh W 15.0 mph24.1 kmh 29.84 in1010.5 mb 0.00 in0.0 mm 0.00 in/hr0.0 mm/hr 0.85 in21.6 mm
12:15 PM 44.4°F6.9°C 42.2°F5.7°C 92% 5.0 mph W8.0 kmh W 15.0 mph24.1 kmh 29.84 in1010.5 mb 0.00 in0.0 mm 0.00 in/hr0.0 mm/hr 0.85 in21.6 mm
12:10 PM 43.4°F6.3°C 40.7°F4.8°C 90% 5.0 mph W8.0 kmh W 13.0 mph20.9 kmh 29.84 in1010.5 mb 0.00 in0.0 mm 0.00 in/hr0.0 mm/hr 0.85 in21.6 mm
12:05 PM 42.9°F6.1°C 40.5°F4.7°C 91% 5.0 mph W8.0 kmh W 14.0 mph22.5 kmh 29.84 in1010.5 mb 0.00 in0.0 mm 0.00 in/hr0.0 mm/hr 0.85 in21.6 mm
12:00 PM 42.6°F5.9°C 40.2°F4.6°C 91% 5.0 mph WSW8.0 kmh WSW 14.0 mph22.5 kmh 29.84 in1010.5 mb 0.00 in0.0 mm 0.00 in/hr0.0 mm/hr 0.85 in21.6 mm
11:55 AM 42.3°F5.7°C 40.1°F4.5°C 92% 5.0 mph WSW8.0 kmh WSW 17.0 mph27.4 kmh 29.84 in1010.5 mb 0.00 in0.0 mm 0.00 in/hr0.0 mm/hr 0.85 in21.6 mm
11:50 AM 41.9°F5.5°C 39.5°F4.2°C 91% 7.0 mph WSW11.3 kmh WSW 20.0 mph32.2 kmh 29.84 in1010.5 mb 0.00 in0.0 mm 0.00 in/hr0.0 mm/hr 0.85 in21.6 mm
11:45 AM 41.5°F5.3°C 38.8°F3.8°C 90% 8.0 mph WSW12.9 kmh WSW 20.0 mph32.2 kmh 29.84 in1010.5 mb 0.00 in0.0 mm 0.00 in/hr0.0 mm/hr 0.85 in21.6 mm
11:40 AM 41.6°F5.3°C 39.2°F4.0°C 91% 8.0 mph W12.9 kmh W 20.0 mph32.2 kmh 29.83 in1010.2 mb 0.00 in0.0 mm 0.00 in/hr0.0 mm/hr 0.85 in21.6 mm
11:35 AM 41.7°F5.4°C 39.8°F4.3°C 93% 6.0 mph W9.7 kmh W 20.0 mph32.2 kmh 29.83 in1010.2 mb 0.00 in0.0 mm 0.00 in/hr0.0 mm/hr 0.85 in21.6 mm
11:30 AM 41.7°F5.4°C 40.1°F4.5°C 94% 6.0 mph WSW9.7 kmh WSW 20.0 mph32.2 kmh 29.83 in1010.2 mb 0.00 in0.0 mm 0.00 in/hr0.0 mm/hr 0.85 in21.6 mm
11:25 AM 41.6°F5.3°C 40.0°F4.4°C 94% 8.0 mph W12.9 kmh W 24.0 mph38.6 kmh 29.83 in1010.2 mb 0.00 in0.0 mm 0.00 in/hr0.0 mm/hr 0.85 in21.6 mm
11:20 AM 41.3°F5.2°C 40.0°F4.4°C 95% 7.0 mph W11.3 kmh W 24.0 mph38.6 kmh 29.83 in1010.2 mb 0.00 in0.0 mm 0.00 in/hr0.0 mm/hr 0.85 in21.6 mm
11:15 AM 40.8°F4.9°C 39.5°F4.2°C 95% 6.0 mph W9.7 kmh W 19.0 mph30.6 kmh 29.82 in1009.8 mb 0.00 in0.0 mm 0.00 in/hr0.0 mm/hr 0.85 in21.6 mm
11:10 AM 40.5°F4.7°C 39.2°F4.0°C 95% 6.0 mph W9.7 kmh W 16.0 mph25.7 kmh 29.82 in1009.8 mb 0.00 in0.0 mm 0.00 in/hr0.0 mm/hr 0.85 in21.6 mm
11:05 AM 40.4°F4.7°C 39.1°F3.9°C 95% 8.0 mph W12.9 kmh W 22.0 mph35.4 kmh 29.82 in1009.8 mb 0.00 in0.0 mm 0.00 in/hr0.0 mm/hr 0.85 in21.6 mm
11:00 AM 40.5°F4.7°C 39.2°F4.0°C 95% 8.0 mph W12.9 kmh W 22.0 mph35.4 kmh 29.82 in1009.8 mb 0.00 in0.0 mm 0.00 in/hr0.0 mm/hr 0.85 in21.6 mm
10:55 AM 40.5°F4.7°C 39.4°F4.1°C 96% 7.0 mph W11.3 kmh W 17.0 mph27.4 kmh 29.81 in1009.5 mb 0.00 in0.0 mm 0.00 in/hr0.0 mm/hr 0.85 in21.6 mm
10:50 AM 40.2°F4.6°C 39.2°F4.0°C 96% 7.0 mph WSW11.3 kmh WSW 17.0 mph27.4 kmh 29.81 in1009.5 mb 0.00 in0.0 mm 0.00 in/hr0.0 mm/hr 0.85 in21.6 mm
10:45 AM 39.8°F4.3°C 38.5°F3.6°C 95% 9.0 mph WSW14.5 kmh WSW 24.0 mph38.6 kmh 29.81 in1009.5 mb 0.00 in0.0 mm 0.00 in/hr0.0 mm/hr 0.85 in21.6 mm
10:40 AM 39.8°F4.3°C 38.8°F3.8°C 96% 8.0 mph WSW12.9 kmh WSW 24.0 mph38.6 kmh 29.80 in1009.1 mb 0.00 in0.0 mm 0.00 in/hr0.0 mm/hr 0.85 in21.6 mm
10:35 AM 39.7°F4.3°C 38.7°F3.7°C 96% 8.0 mph WSW12.9 kmh WSW 21.0 mph33.8 kmh 29.80 in1009.1 mb 0.00 in0.0 mm 0.00 in/hr0.0 mm/hr 0.85 in21.6 mm
10:30 AM 39.6°F4.2°C 38.6°F3.7°C 96% 9.0 mph WSW14.5 kmh WSW 21.0 mph33.8 kmh 29.80 in1009.1 mb 0.00 in0.0 mm 0.00 in/hr0.0 mm/hr 0.85 in21.6 mm
10:25 AM 39.6°F4.2°C 38.6°F3.7°C 96% 9.0 mph WSW14.5 kmh WSW 21.0 mph33.8 kmh 29.80 in1009.1 mb 0.00 in0.0 mm 0.00 in/hr0.0 mm/hr 0.85 in21.6 mm
10:20 AM 39.7°F4.3°C 38.7°F3.7°C 96% 8.0 mph W12.9 kmh W 21.0 mph33.8 kmh 29.79 in1008.8 mb 0.00 in0.0 mm 0.00 in/hr0.0 mm/hr 0.85 in21.6 mm
10:15 AM 39.8°F4.3°C 39.0°F3.9°C 97% 6.0 mph W9.7 kmh W 17.0 mph27.4 kmh 29.79 in1008.8 mb 0.00 in0.0 mm 0.00 in/hr0.0 mm/hr 0.85 in21.6 mm
10:10 AM 39.8°F4.3°C 38.8°F3.8°C 96% 7.0 mph W11.3 kmh W 21.0 mph33.8 kmh 29.79 in1008.8 mb 0.00 in0.0 mm 0.00 in/hr0.0 mm/hr 0.85 in21.6 mm
10:05 AM 39.6°F4.2°C 38.6°F3.7°C 96% 6.0 mph W9.7 kmh W 21.0 mph33.8 kmh 29.79 in1008.8 mb 0.00 in0.0 mm 0.00 in/hr0.0 mm/hr 0.85 in21.6 mm
10:00 AM 39.6°F4.2°C 38.6°F3.7°C 96% 4.0 mph WSW6.4 kmh WSW 19.0 mph30.6 kmh 29.79 in1008.8 mb 0.00 in0.0 mm 0.00 in/hr0.0 mm/hr 0.85 in21.6 mm
09:55 AM 39.5°F4.2°C 38.7°F3.7°C 97% 5.0 mph WSW8.0 kmh WSW 18.0 mph29.0 kmh 29.78 in1008.5 mb 0.00 in0.0 mm 0.00 in/hr0.0 mm/hr 0.85 in21.6 mm
09:50 AM 39.6°F4.2°C 38.6°F3.7°C 96% 6.0 mph WSW9.7 kmh WSW 18.0 mph29.0 kmh 29.78 in1008.5 mb 0.00 in0.0 mm 0.00 in/hr0.0 mm/hr 0.85 in21.6 mm
09:45 AM 39.6°F4.2°C 38.6°F3.7°C 96% 4.0 mph WSW6.4 kmh WSW 17.0 mph27.4 kmh 29.78 in1008.5 mb 0.00 in0.0 mm 0.00 in/hr0.0 mm/hr 0.85 in21.6 mm
09:40 AM 39.6°F4.2°C 38.6°F3.7°C 96% 3.0 mph WSW4.8 kmh WSW 12.0 mph19.3 kmh 29.77 in1008.1 mb 0.00 in0.0 mm 0.00 in/hr0.0 mm/hr 0.85 in21.6 mm
09:35 AM 39.7°F4.3°C 38.7°F3.7°C 96% 4.0 mph WSW6.4 kmh WSW 15.0 mph24.1 kmh 29.77 in1008.1 mb 0.00 in0.0 mm 0.00 in/hr0.0 mm/hr 0.85 in21.6 mm
09:30 AM 39.9°F4.4°C 38.9°F3.8°C 96% 4.0 mph WSW6.4 kmh WSW 15.0 mph24.1 kmh 29.77 in1008.1 mb 0.00 in0.0 mm 0.00 in/hr0.0 mm/hr 0.85 in21.6 mm
09:25 AM 40.0°F4.4°C 39.2°F4.0°C 97% 5.0 mph W8.0 kmh W 18.0 mph29.0 kmh 29.76 in1007.8 mb 0.00 in0.0 mm 0.00 in/hr0.0 mm/hr 0.85 in21.6 mm
09:20 AM 40.0°F4.4°C 39.2°F4.0°C 97% 5.0 mph W8.0 kmh W 18.0 mph29.0 kmh 29.76 in1007.8 mb 0.00 in0.0 mm 0.00 in/hr0.0 mm/hr 0.85 in21.6 mm
09:15 AM 40.0°F4.4°C 39.2°F4.0°C 97% 4.0 mph WSW6.4 kmh WSW 17.0 mph27.4 kmh 29.75 in1007.5 mb 0.00 in0.0 mm 0.00 in/hr0.0 mm/hr 0.85 in21.6 mm
09:10 AM 40.0°F4.4°C 39.2°F4.0°C 97% 5.0 mph WSW8.0 kmh WSW 18.0 mph29.0 kmh 29.75 in1007.5 mb 0.00 in0.0 mm 0.00 in/hr0.0 mm/hr 0.85 in21.6 mm
09:05 AM 39.9°F4.4°C 39.1°F3.9°C 97% 6.0 mph WSW9.7 kmh WSW 18.0 mph29.0 kmh 29.74 in1007.1 mb 0.00 in0.0 mm 0.00 in/hr0.0 mm/hr 0.85 in21.6 mm
09:00 AM 39.8°F4.3°C 39.0°F3.9°C 97% 6.0 mph WSW9.7 kmh WSW 17.0 mph27.4 kmh 29.74 in1007.1 mb 0.00 in0.0 mm 0.00 in/hr0.0 mm/hr 0.85 in21.6 mm
08:55 AM 39.7°F4.3°C 38.7°F3.7°C 96% 7.0 mph WSW11.3 kmh WSW 17.0 mph27.4 kmh 29.74 in1007.1 mb 0.00 in0.0 mm 0.00 in/hr0.0 mm/hr 0.85 in21.6 mm
08:50 AM 39.6°F4.2°C 38.8°F3.8°C 97% 6.0 mph WSW9.7 kmh WSW 17.0 mph27.4 kmh 29.73 in1006.8 mb 0.00 in0.0 mm 0.00 in/hr0.0 mm/hr 0.85 in21.6 mm
08:45 AM 39.5°F4.2°C 38.7°F3.7°C 97% 7.0 mph WSW11.3 kmh WSW 18.0 mph29.0 kmh 29.73 in1006.8 mb 0.00 in0.0 mm 0.00 in/hr0.0 mm/hr 0.85 in21.6 mm
08:40 AM 39.5°F4.2°C 38.5°F3.6°C 96% 8.0 mph WSW12.9 kmh WSW 20.0 mph32.2 kmh 29.72 in1006.4 mb 0.00 in0.0 mm 0.00 in/hr0.0 mm/hr 0.85 in21.6 mm
08:35 AM 39.5°F4.2°C 38.5°F3.6°C 96% 9.0 mph WSW14.5 kmh WSW 20.0 mph32.2 kmh 29.72 in1006.4 mb 0.00 in0.0 mm 0.00 in/hr0.0 mm/hr 0.85 in21.6 mm
08:30 AM 39.5°F4.2°C 38.5°F3.6°C 96% 9.0 mph WSW14.5 kmh WSW 19.0 mph30.6 kmh 29.72 in1006.4 mb 0.01 in0.3 mm 0.00 in/hr0.0 mm/hr 0.85 in21.6 mm
08:25 AM 39.5°F4.2°C 38.5°F3.6°C 96% 8.0 mph WSW12.9 kmh WSW 19.0 mph30.6 kmh 29.72 in1006.4 mb 0.01 in0.3 mm 0.00 in/hr0.0 mm/hr 0.85 in21.6 mm
08:20 AM 39.6°F4.2°C 38.6°F3.7°C 96% 9.0 mph WSW14.5 kmh WSW 28.0 mph45.1 kmh 29.71 in1006.1 mb 0.01 in0.3 mm 0.00 in/hr0.0 mm/hr 0.85 in21.6 mm
08:15 AM 39.8°F4.3°C 38.8°F3.8°C 96% 8.0 mph WSW12.9 kmh WSW 28.0 mph45.1 kmh 29.71 in1006.1 mb 0.01 in0.3 mm 0.00 in/hr0.0 mm/hr 0.85 in21.6 mm
08:10 AM 40.1°F4.5°C 39.1°F3.9°C 96% 6.0 mph WSW9.7 kmh WSW 25.0 mph40.2 kmh 29.71 in1006.1 mb 0.02 in0.5 mm 0.00 in/hr0.0 mm/hr 0.85 in21.6 mm
08:05 AM 40.6°F4.8°C 39.8°F4.3°C 97% 6.0 mph WSW9.7 kmh WSW 25.0 mph40.2 kmh 29.71 in1006.1 mb 0.02 in0.5 mm 0.00 in/hr0.0 mm/hr 0.85 in21.6 mm
08:00 AM 40.7°F4.8°C 39.9°F4.4°C 97% 6.0 mph WSW9.7 kmh WSW 21.0 mph33.8 kmh 29.70 in1005.8 mb 0.02 in0.5 mm 0.00 in/hr0.0 mm/hr 0.85 in21.6 mm
07:55 AM 40.9°F4.9°C 40.1°F4.5°C 97% 7.0 mph SW11.3 kmh SW 19.0 mph30.6 kmh 29.70 in1005.8 mb 0.02 in0.5 mm 0.00 in/hr0.0 mm/hr 0.85 in21.6 mm
07:50 AM 40.9°F4.9°C 40.1°F4.5°C 97% 9.0 mph SW14.5 kmh SW 20.0 mph32.2 kmh 29.70 in1005.8 mb 0.02 in0.5 mm 0.00 in/hr0.0 mm/hr 0.85 in21.6 mm
07:45 AM 41.0°F5.0°C 40.2°F4.6°C 97% 8.0 mph WSW12.9 kmh WSW 20.0 mph32.2 kmh 29.69 in1005.4 mb 0.02 in0.5 mm 0.00 in/hr0.0 mm/hr 0.85 in21.6 mm
07:40 AM 41.1°F5.1°C 40.3°F4.6°C 97% 8.0 mph SW12.9 kmh SW 20.0 mph32.2 kmh 29.69 in1005.4 mb 0.02 in0.5 mm 0.00 in/hr0.0 mm/hr 0.85 in21.6 mm
07:35 AM 41.3°F5.2°C 40.5°F4.7°C 97% 9.0 mph WSW14.5 kmh WSW 21.0 mph33.8 kmh 29.69 in1005.4 mb 0.02 in0.5 mm 0.00 in/hr0.0 mm/hr 0.85 in21.6 mm
07:30 AM 41.7°F5.4°C 40.9°F4.9°C 97% 9.0 mph WSW14.5 kmh WSW 21.0 mph33.8 kmh 29.68 in1005.1 mb 0.02 in0.5 mm 0.00 in/hr0.0 mm/hr 0.84 in21.3 mm
07:25 AM 42.0°F5.6°C 41.2°F5.1°C 97% 8.0 mph SW12.9 kmh SW 19.0 mph30.6 kmh 29.68 in1005.1 mb 0.02 in0.5 mm 0.00 in/hr0.0 mm/hr 0.84 in21.3 mm
07:20 AM 42.0°F5.6°C 41.2°F5.1°C 97% 7.0 mph SW11.3 kmh SW 18.0 mph29.0 kmh 29.68 in1005.1 mb 0.02 in0.5 mm 0.00 in/hr0.0 mm/hr 0.84 in21.3 mm
07:15 AM 42.0°F5.6°C 41.2°F5.1°C 97% 6.0 mph WSW9.7 kmh WSW 17.0 mph27.4 kmh 29.68 in1005.1 mb 0.03 in0.8 mm 0.12 in/hr3.0 mm/hr 0.84 in21.3 mm
07:10 AM 42.1°F5.6°C 41.3°F5.2°C 97% 6.0 mph WSW9.7 kmh WSW 14.0 mph22.5 kmh 29.67 in1004.7 mb 0.02 in0.5 mm 0.00 in/hr0.0 mm/hr 0.83 in21.1 mm
07:05 AM 42.2°F5.7°C 41.4°F5.2°C 97% 6.0 mph WSW9.7 kmh WSW 17.0 mph27.4 kmh 29.67 in1004.7 mb 0.03 in0.8 mm 0.00 in/hr0.0 mm/hr 0.83 in21.1 mm
07:00 AM 42.2°F5.7°C 41.4°F5.2°C 97% 7.0 mph WSW11.3 kmh WSW 17.0 mph27.4 kmh 29.66 in1004.4 mb 0.04 in1.0 mm 0.00 in/hr0.0 mm/hr 0.83 in21.1 mm
06:55 AM 42.3°F5.7°C 41.5°F5.3°C 97% 6.0 mph WSW9.7 kmh WSW 16.0 mph25.7 kmh 29.66 in1004.4 mb 0.04 in1.0 mm 0.00 in/hr0.0 mm/hr 0.83 in21.1 mm
06:50 AM 42.4°F5.8°C 41.6°F5.3°C 97% 6.0 mph WSW9.7 kmh WSW 16.0 mph25.7 kmh 29.66 in1004.4 mb 0.04 in1.0 mm 0.00 in/hr0.0 mm/hr 0.83 in21.1 mm
06:45 AM 42.6°F5.9°C 41.8°F5.4°C 97% 7.0 mph WSW11.3 kmh WSW 22.0 mph35.4 kmh 29.65 in1004.1 mb 0.05 in1.3 mm 0.00 in/hr0.0 mm/hr 0.83 in21.1 mm
06:40 AM 42.8°F6.0°C 42.0°F5.6°C 97% 8.0 mph WSW12.9 kmh WSW 22.0 mph35.4 kmh 29.65 in1004.1 mb 0.06 in1.5 mm 0.00 in/hr0.0 mm/hr 0.83 in21.1 mm
06:35 AM 43.1°F6.2°C 42.3°F5.7°C 97% 8.0 mph WSW12.9 kmh WSW 18.0 mph29.0 kmh 29.65 in1004.1 mb 0.06 in1.5 mm 0.00 in/hr0.0 mm/hr 0.83 in21.1 mm
06:30 AM 43.4°F6.3°C 42.6°F5.9°C 97% 7.0 mph WSW11.3 kmh WSW 18.0 mph29.0 kmh 29.65 in1004.1 mb 0.06 in1.5 mm 0.00 in/hr0.0 mm/hr 0.82 in20.8 mm
06:25 AM 43.7°F6.5°C 42.9°F6.1°C 97% 7.0 mph WSW11.3 kmh WSW 20.0 mph32.2 kmh 29.64 in1003.7 mb 0.07 in1.8 mm 0.00 in/hr0.0 mm/hr 0.82 in20.8 mm
06:20 AM 44.0°F6.7°C 43.2°F6.2°C 97% 9.0 mph WSW14.5 kmh WSW 20.0 mph32.2 kmh 29.64 in1003.7 mb 0.09 in2.3 mm 0.00 in/hr0.0 mm/hr 0.82 in20.8 mm
06:15 AM 44.3°F6.8°C 43.5°F6.4°C 97% 9.0 mph WSW14.5 kmh WSW 22.0 mph35.4 kmh 29.63 in1003.4 mb 0.09 in2.3 mm 0.00 in/hr0.0 mm/hr 0.81 in20.6 mm
06:10 AM 44.6°F7.0°C 43.8°F6.6°C 97% 8.0 mph WSW12.9 kmh WSW 22.0 mph35.4 kmh 29.63 in1003.4 mb 0.10 in2.5 mm 0.00 in/hr0.0 mm/hr 0.81 in20.6 mm
06:05 AM 44.8°F7.1°C 44.0°F6.7°C 97% 7.0 mph WSW11.3 kmh WSW 21.0 mph33.8 kmh 29.62 in1003.0 mb 0.10 in2.5 mm 0.00 in/hr0.0 mm/hr 0.80 in20.3 mm
06:00 AM 45.0°F7.2°C 44.2°F6.8°C 97% 7.0 mph WSW11.3 kmh WSW 19.0 mph30.6 kmh 29.62 in1003.0 mb 0.10 in2.5 mm 0.00 in/hr0.0 mm/hr 0.79 in20.1 mm
05:55 AM 45.4°F7.4°C 44.6°F7.0°C 97% 9.0 mph WSW14.5 kmh WSW 19.0 mph30.6 kmh 29.62 in1003.0 mb 0.11 in2.8 mm 0.00 in/hr0.0 mm/hr 0.79 in20.1 mm
05:50 AM 45.8°F7.7°C 45.0°F7.2°C 97% 8.0 mph WSW12.9 kmh WSW 22.0 mph35.4 kmh 29.61 in1002.7 mb 0.12 in3.0 mm 0.00 in/hr0.0 mm/hr 0.79 in20.1 mm
05:45 AM 46.1°F7.8°C 45.3°F7.4°C 97% 8.0 mph WSW12.9 kmh WSW 22.0 mph35.4 kmh 29.61 in1002.7 mb 0.13 in3.3 mm 0.00 in/hr0.0 mm/hr 0.78 in19.8 mm
05:40 AM 46.4°F8.0°C 45.6°F7.6°C 97% 7.0 mph WSW11.3 kmh WSW 18.0 mph29.0 kmh 29.60 in1002.4 mb 0.13 in3.3 mm 0.00 in/hr0.0 mm/hr 0.77 in19.6 mm
05:35 AM 46.7°F8.2°C 46.2°F7.9°C 100% 5.0 mph WSW8.0 kmh WSW 15.0 mph24.1 kmh 29.60 in1002.4 mb 0.14 in3.6 mm 0.12 in/hr3.0 mm/hr 0.77 in19.6 mm
05:30 AM 46.9°F8.3°C 46.4°F8.0°C 100% 6.0 mph WSW9.7 kmh WSW 14.0 mph22.5 kmh 29.59 in1002.0 mb 0.13 in3.3 mm 0.00 in/hr0.0 mm/hr 0.76 in19.3 mm
05:25 AM 46.9°F8.3°C 46.4°F8.0°C 100% 6.0 mph SW9.7 kmh SW 17.0 mph27.4 kmh 29.59 in1002.0 mb 0.13 in3.3 mm 0.12 in/hr3.0 mm/hr 0.75 in19.1 mm
05:20 AM 46.9°F8.3°C 46.4°F8.0°C 100% 5.0 mph SW8.0 kmh SW 17.0 mph27.4 kmh 29.59 in1002.0 mb 0.12 in3.0 mm 0.00 in/hr0.0 mm/hr 0.73 in18.5 mm
05:15 AM 46.9°F8.3°C 46.4°F8.0°C 100% 4.0 mph SW6.4 kmh SW 12.0 mph19.3 kmh 29.58 in1001.7 mb 0.12 in3.0 mm 0.00 in/hr0.0 mm/hr 0.72 in18.3 mm
05:10 AM 46.9°F8.3°C 46.4°F8.0°C 100% 5.0 mph SW8.0 kmh SW 14.0 mph22.5 kmh 29.58 in1001.7 mb 0.12 in3.0 mm 0.12 in/hr3.0 mm/hr 0.71 in18.0 mm
05:05 AM 46.9°F8.3°C 46.4°F8.0°C 100% 6.0 mph SW9.7 kmh SW 14.0 mph22.5 kmh 29.58 in1001.7 mb 0.11 in2.8 mm 0.00 in/hr0.0 mm/hr 0.70 in17.8 mm
05:00 AM 46.9°F8.3°C 46.4°F8.0°C 100% 6.0 mph SW9.7 kmh SW 14.0 mph22.5 kmh 29.57 in1001.4 mb 0.12 in3.0 mm 0.00 in/hr0.0 mm/hr 0.69 in17.5 mm
04:55 AM 46.9°F8.3°C 46.4°F8.0°C 100% 5.0 mph SW8.0 kmh SW 12.0 mph19.3 kmh 29.57 in1001.4 mb 0.14 in3.6 mm 0.00 in/hr0.0 mm/hr 0.68 in17.3 mm
04:50 AM 46.8°F8.2°C 46.0°F7.8°C 97% 5.0 mph SW8.0 kmh SW 19.0 mph30.6 kmh 29.57 in1001.4 mb 0.14 in3.6 mm 0.12 in/hr3.0 mm/hr 0.67 in17.0 mm
04:45 AM 46.8°F8.2°C 46.0°F7.8°C 97% 6.0 mph SW9.7 kmh SW 19.0 mph30.6 kmh 29.56 in1001.0 mb 0.13 in3.3 mm 0.12 in/hr3.0 mm/hr 0.65 in16.5 mm
04:40 AM 46.7°F8.2°C 45.9°F7.7°C 97% 6.0 mph SW9.7 kmh SW 18.0 mph29.0 kmh 29.57 in1001.4 mb 0.12 in3.0 mm 0.00 in/hr0.0 mm/hr 0.64 in16.3 mm
04:35 AM 46.7°F8.2°C 45.9°F7.7°C 97% 8.0 mph SW12.9 kmh SW 18.0 mph29.0 kmh 29.56 in1001.0 mb 0.12 in3.0 mm 0.00 in/hr0.0 mm/hr 0.63 in16.0 mm
04:30 AM 46.5°F8.1°C 45.7°F7.6°C 97% 8.0 mph SW12.9 kmh SW 17.0 mph27.4 kmh 29.56 in1001.0 mb 0.12 in3.0 mm 0.00 in/hr0.0 mm/hr 0.63 in16.0 mm
04:25 AM 46.4°F8.0°C 45.6°F7.6°C 97% 7.0 mph SW11.3 kmh SW 17.0 mph27.4 kmh 29.56 in1001.0 mb 0.12 in3.0 mm 0.12 in/hr3.0 mm/hr 0.62 in15.7 mm
04:20 AM 46.4°F8.0°C 45.6°F7.6°C 97% 7.0 mph SW11.3 kmh SW 14.0 mph22.5 kmh 29.55 in1000.7 mb 0.11 in2.8 mm 0.00 in/hr0.0 mm/hr 0.61 in15.5 mm
04:15 AM 46.4°F8.0°C 45.6°F7.6°C 97% 6.0 mph SW9.7 kmh SW 13.0 mph20.9 kmh 29.55 in1000.7 mb 0.12 in3.0 mm 0.12 in/hr3.0 mm/hr 0.60 in15.2 mm
04:10 AM 46.3°F7.9°C 45.5°F7.5°C 97% 5.0 mph SW8.0 kmh SW 12.0 mph19.3 kmh 29.55 in1000.7 mb 0.11 in2.8 mm 0.00 in/hr0.0 mm/hr 0.59 in15.0 mm
04:05 AM 46.3°F7.9°C 45.5°F7.5°C 97% 5.0 mph SW8.0 kmh SW 12.0 mph19.3 kmh 29.55 in1000.7 mb 0.11 in2.8 mm 0.00 in/hr0.0 mm/hr 0.58 in14.7 mm
04:00 AM 46.3°F7.9°C 45.5°F7.5°C 97% 5.0 mph SW8.0 kmh SW 14.0 mph22.5 kmh 29.55 in1000.7 mb 0.11 in2.8 mm 0.01 in/hr0.3 mm/hr 0.57 in14.5 mm
03:55 AM 46.4°F8.0°C 45.6°F7.6°C 97% 6.0 mph SSW9.7 kmh SSW 14.0 mph22.5 kmh 29.54 in1000.3 mb 0.10 in2.5 mm 0.00 in/hr0.0 mm/hr 0.54 in13.7 mm
03:50 AM 46.4°F8.0°C 45.6°F7.6°C 97% 7.0 mph SSW11.3 kmh SSW 14.0 mph22.5 kmh 29.54 in1000.3 mb 0.10 in2.5 mm 0.00 in/hr0.0 mm/hr 0.53 in13.5 mm
03:45 AM 46.3°F7.9°C 45.5°F7.5°C 97% 7.0 mph SSW11.3 kmh SSW 15.0 mph24.1 kmh 29.54 in1000.3 mb 0.10 in2.5 mm 0.00 in/hr0.0 mm/hr 0.52 in13.2 mm
03:40 AM 46.3°F7.9°C 45.5°F7.5°C 97% 6.0 mph SW9.7 kmh SW 15.0 mph24.1 kmh 29.54 in1000.3 mb 0.11 in2.8 mm 0.00 in/hr0.0 mm/hr 0.52 in13.2 mm
03:35 AM 46.3°F7.9°C 45.5°F7.5°C 97% 7.0 mph SW11.3 kmh SW 15.0 mph24.1 kmh 29.54 in1000.3 mb 0.11 in2.8 mm 0.00 in/hr0.0 mm/hr 0.51 in13.0 mm
03:30 AM 46.3°F7.9°C 45.5°F7.5°C 97% 8.0 mph SW12.9 kmh SW 20.0 mph32.2 kmh 29.54 in1000.3 mb 0.11 in2.8 mm 0.00 in/hr0.0 mm/hr 0.50 in12.7 mm
03:25 AM 46.3°F7.9°C 45.5°F7.5°C 97% 7.0 mph SW11.3 kmh SW 20.0 mph32.2 kmh 29.54 in1000.3 mb 0.12 in3.0 mm 0.00 in/hr0.0 mm/hr 0.50 in12.7 mm
03:20 AM 46.3°F7.9°C 45.5°F7.5°C 97% 6.0 mph SW9.7 kmh SW 19.0 mph30.6 kmh 29.54 in1000.3 mb 0.12 in3.0 mm 0.12 in/hr3.0 mm/hr 0.50 in12.7 mm
03:15 AM 46.3°F7.9°C 45.5°F7.5°C 97% 7.0 mph SW11.3 kmh SW 18.0 mph29.0 kmh 29.54 in1000.3 mb 0.11 in2.8 mm 0.00 in/hr0.0 mm/hr 0.48 in12.2 mm
03:10 AM 46.3°F7.9°C 45.5°F7.5°C 97% 7.0 mph SW11.3 kmh SW 18.0 mph29.0 kmh 29.54 in1000.3 mb 0.11 in2.8 mm 0.00 in/hr0.0 mm/hr 0.48 in12.2 mm
03:05 AM 46.2°F7.9°C 45.4°F7.4°C 97% 8.0 mph SW12.9 kmh SW 17.0 mph27.4 kmh 29.54 in1000.3 mb 0.11 in2.8 mm 0.00 in/hr0.0 mm/hr 0.47 in11.9 mm
03:00 AM 46.2°F7.9°C 45.4°F7.4°C 97% 7.0 mph SW11.3 kmh SW 17.0 mph27.4 kmh 29.54 in1000.3 mb 0.11 in2.8 mm 0.01 in/hr0.3 mm/hr 0.46 in11.7 mm
02:55 AM 46.1°F7.8°C 45.3°F7.4°C 97% 5.0 mph SW8.0 kmh SW 15.0 mph24.1 kmh 29.54 in1000.3 mb 0.10 in2.5 mm 0.12 in/hr3.0 mm/hr 0.44 in11.2 mm
02:50 AM 46.0°F7.8°C 45.2°F7.3°C 97% 5.0 mph SW8.0 kmh SW 13.0 mph20.9 kmh 29.54 in1000.3 mb 0.09 in2.3 mm 0.00 in/hr0.0 mm/hr 0.43 in10.9 mm
02:45 AM 46.0°F7.8°C 45.2°F7.3°C 97% 6.0 mph SW9.7 kmh SW 16.0 mph25.7 kmh 29.54 in1000.3 mb 0.09 in2.3 mm 0.00 in/hr0.0 mm/hr 0.42 in10.7 mm
02:40 AM 46.0°F7.8°C 45.2°F7.3°C 97% 5.0 mph SW8.0 kmh SW 16.0 mph25.7 kmh 29.54 in1000.3 mb 0.09 in2.3 mm 0.12 in/hr3.0 mm/hr 0.41 in10.4 mm
02:35 AM 45.9°F7.7°C 45.1°F7.3°C 97% 5.0 mph SW8.0 kmh SW 16.0 mph25.7 kmh 29.54 in1000.3 mb 0.08 in2.0 mm 0.00 in/hr0.0 mm/hr 0.40 in10.2 mm
02:30 AM 45.8°F7.7°C 45.0°F7.2°C 97% 7.0 mph SW11.3 kmh SW 16.0 mph25.7 kmh 29.54 in1000.3 mb 0.09 in2.3 mm 0.12 in/hr3.0 mm/hr 0.39 in9.9 mm
02:25 AM 45.8°F7.7°C 45.0°F7.2°C 97% 6.0 mph SW9.7 kmh SW 16.0 mph25.7 kmh 29.54 in1000.3 mb 0.08 in2.0 mm 0.00 in/hr0.0 mm/hr 0.38 in9.7 mm
02:20 AM 45.8°F7.7°C 45.0°F7.2°C 97% 5.0 mph SSW8.0 kmh SSW 15.0 mph24.1 kmh 29.54 in1000.3 mb 0.10 in2.5 mm 0.12 in/hr3.0 mm/hr 0.38 in9.7 mm
02:15 AM 45.8°F7.7°C 45.0°F7.2°C 97% 6.0 mph SSW9.7 kmh SSW 18.0 mph29.0 kmh 29.54 in1000.3 mb 0.09 in2.3 mm 0.00 in/hr0.0 mm/hr 0.37 in9.4 mm
02:10 AM 45.8°F7.7°C 45.0°F7.2°C 97% 7.0 mph SSW11.3 kmh SSW 18.0 mph29.0 kmh 29.54 in1000.3 mb 0.11 in2.8 mm 0.00 in/hr0.0 mm/hr 0.37 in9.4 mm
02:05 AM 45.7°F7.6°C 44.9°F7.2°C 97% 6.0 mph SSW9.7 kmh SSW 17.0 mph27.4 kmh 29.54 in1000.3 mb 0.11 in2.8 mm 0.00 in/hr0.0 mm/hr 0.36 in9.1 mm
02:00 AM 45.7°F7.6°C 44.9°F7.2°C 97% 7.0 mph SSW11.3 kmh SSW 17.0 mph27.4 kmh 29.54 in1000.3 mb 0.11 in2.8 mm 0.01 in/hr0.3 mm/hr 0.35 in8.9 mm
01:55 AM 45.7°F7.6°C 44.9°F7.2°C 97% 7.0 mph SSW11.3 kmh SSW 20.0 mph32.2 kmh 29.54 in1000.3 mb 0.10 in2.5 mm 0.00 in/hr0.0 mm/hr 0.34 in8.6 mm
01:50 AM 45.7°F7.6°C 44.9°F7.2°C 97% 7.0 mph SSW11.3 kmh SSW 20.0 mph32.2 kmh 29.54 in1000.3 mb 0.10 in2.5 mm 0.00 in/hr0.0 mm/hr 0.33 in8.4 mm
01:45 AM 45.7°F7.6°C 44.9°F7.2°C 97% 7.0 mph SW11.3 kmh SW 18.0 mph29.0 kmh 29.54 in1000.3 mb 0.11 in2.8 mm 0.00 in/hr0.0 mm/hr 0.33 in8.4 mm
01:40 AM 45.7°F7.6°C 44.9°F7.2°C 97% 6.0 mph SW9.7 kmh SW 15.0 mph24.1 kmh 29.54 in1000.3 mb 0.11 in2.8 mm 0.00 in/hr0.0 mm/hr 0.32 in8.1 mm
01:35 AM 45.7°F7.6°C 44.9°F7.2°C 97% 6.0 mph SSW9.7 kmh SSW 16.0 mph25.7 kmh 29.54 in1000.3 mb 0.11 in2.8 mm 0.00 in/hr0.0 mm/hr 0.31 in7.9 mm
01:30 AM 45.7°F7.6°C 44.9°F7.2°C 97% 6.0 mph SW9.7 kmh SW 16.0 mph25.7 kmh 29.54 in1000.3 mb 0.11 in2.8 mm 0.12 in/hr3.0 mm/hr 0.30 in7.6 mm
01:25 AM 45.8°F7.7°C 45.0°F7.2°C 97% 6.0 mph SSW9.7 kmh SSW 18.0 mph29.0 kmh 29.54 in1000.3 mb 0.10 in2.5 mm 0.00 in/hr0.0 mm/hr 0.29 in7.4 mm
01:20 AM 45.7°F7.6°C 44.9°F7.2°C 97% 7.0 mph SSW11.3 kmh SSW 18.0 mph29.0 kmh 29.55 in1000.7 mb 0.10 in2.5 mm 0.00 in/hr0.0 mm/hr 0.28 in7.1 mm
01:15 AM 45.7°F7.6°C 44.9°F7.2°C 97% 7.0 mph SW11.3 kmh SW 18.0 mph29.0 kmh 29.55 in1000.7 mb 0.10 in2.5 mm 0.12 in/hr3.0 mm/hr 0.27 in6.9 mm
01:10 AM 45.7°F7.6°C 44.9°F7.2°C 97% 7.0 mph SSW11.3 kmh SSW 16.0 mph25.7 kmh 29.55 in1000.7 mb 0.09 in2.3 mm 0.00 in/hr0.0 mm/hr 0.26 in6.6 mm
01:05 AM 45.7°F7.6°C 44.9°F7.2°C 97% 8.0 mph SW12.9 kmh SW 19.0 mph30.6 kmh 29.55 in1000.7 mb 0.09 in2.3 mm 0.12 in/hr3.0 mm/hr 0.25 in6.4 mm
01:00 AM 45.7°F7.6°C 44.9°F7.2°C 97% 7.0 mph SSW11.3 kmh SSW 19.0 mph30.6 kmh 29.55 in1000.7 mb 0.08 in2.0 mm 0.00 in/hr0.0 mm/hr 0.24 in6.1 mm
12:55 AM 45.7°F7.6°C 44.9°F7.2°C 97% 6.0 mph SSW9.7 kmh SSW 18.0 mph29.0 kmh 29.55 in1000.7 mb 0.09 in2.3 mm 0.00 in/hr0.0 mm/hr 0.24 in6.1 mm
12:50 AM 45.7°F7.6°C 44.9°F7.2°C 97% 6.0 mph SSW9.7 kmh SSW 18.0 mph29.0 kmh 29.55 in1000.7 mb 0.09 in2.3 mm 0.00 in/hr0.0 mm/hr 0.23 in5.8 mm
12:45 AM 45.7°F7.6°C 44.9°F7.2°C 97% 7.0 mph SW11.3 kmh SW 17.0 mph27.4 kmh 29.55 in1000.7 mb 0.09 in2.3 mm 0.00 in/hr0.0 mm/hr 0.22 in5.6 mm
12:40 AM 45.6°F7.6°C 44.8°F7.1°C 97% 8.0 mph SSW12.9 kmh SSW 19.0 mph30.6 kmh 29.54 in1000.3 mb 0.09 in2.3 mm 0.00 in/hr0.0 mm/hr 0.21 in5.3 mm
12:35 AM 45.6°F7.6°C 44.8°F7.1°C 97% 7.0 mph SSW11.3 kmh SSW 19.0 mph30.6 kmh 29.54 in1000.3 mb 0.09 in2.3 mm 0.00 in/hr0.0 mm/hr 0.20 in5.1 mm
12:30 AM 45.6°F7.6°C 44.8°F7.1°C 97% 7.0 mph SSW11.3 kmh SSW 19.0 mph30.6 kmh 29.55 in1000.7 mb 0.09 in2.3 mm 0.00 in/hr0.0 mm/hr 0.19 in4.8 mm
12:25 AM 45.6°F7.6°C 44.8°F7.1°C 97% 7.0 mph SSW11.3 kmh SSW 17.0 mph27.4 kmh 29.55 in1000.7 mb 0.11 in2.8 mm 0.00 in/hr0.0 mm/hr 0.19 in4.8 mm
12:20 AM 45.5°F7.5°C 44.7°F7.1°C 97% 6.0 mph SSW9.7 kmh SSW 16.0 mph25.7 kmh 29.55 in1000.7 mb 0.12 in3.0 mm 0.00 in/hr0.0 mm/hr 0.18 in4.6 mm
12:15 AM 45.5°F7.5°C 44.7°F7.1°C 97% 7.0 mph SSW11.3 kmh SSW 17.0 mph27.4 kmh 29.55 in1000.7 mb 0.13 in3.3 mm 0.00 in/hr0.0 mm/hr 0.17 in4.3 mm
12:10 AM 45.4°F7.4°C 44.6°F7.0°C 97% 7.0 mph SSW11.3 kmh SSW 17.0 mph27.4 kmh 29.55 in1000.7 mb 0.14 in3.6 mm 0.00 in/hr0.0 mm/hr 0.17 in4.3 mm
12:05 AM 45.4°F7.4°C 44.6°F7.0°C 97% 6.0 mph SSW9.7 kmh SSW 16.0 mph25.7 kmh 29.55 in1000.7 mb 0.14 in3.6 mm 0.00 in/hr0.0 mm/hr 0.16 in4.1 mm
12:00 AM 45.4°F7.4°C 44.6°F7.0°C 97% 7.0 mph SSW11.3 kmh SSW 16.0 mph25.7 kmh 29.55 in1000.7 mb 0.16 in4.1 mm 0.00 in/hr0.0 mm/hr 0.16 in4.1 mm